Time;durP1;ratioP1;P1;durP2;ratioP2;P2;SDS_P1;SDS_P2;PMS_P1;PMS_P2;Temp;Humidity;BMP_temperature;BMP_pressure;BME280_temperature;BME280_humidity;BME280_pressure;Samples;Min_cycle;Max_cycle;Signal;HPM_P1;HPM_P2
2022/01/03 00:00:08;;;;;;;7.60;4.30;;;;;;;10.41;75.63;99105.21;130230;1268;109115;-75
2022/01/03 00:03:34;;;;;;;7.20;4.00;;;;;;;10.42;75.24;99097.59;130266;1268;110338;-75
2022/01/03 00:06:40;;;;;;;6.80;3.90;;;;;;;10.40;75.03;99089.45;130222;1270;108776;-76
2022/01/03 00:09:45;;;;;;;5.60;4.00;;;;;;;10.37;75.13;99083.92;130266;1268;108247;-77
2022/01/03 00:12:51;;;;;;;7.00;4.00;;;;;;;10.33;75.05;99081.55;130269;1268;108723;-77
2022/01/03 00:15:56;;;;;;;6.20;3.80;;;;;;;10.29;75.16;99077.67;130237;1268;109058;-79
2022/01/03 00:19:02;;;;;;;5.20;3.30;;;;;;;10.25;74.96;99082.88;130266;1268;108635;-80
2022/01/03 00:22:12;;;;;;;6.70;3.60;;;;;;;10.27;75.03;99077.71;130280;1268;108752;-80
2022/01/03 00:25:21;;;;;;;6.20;3.60;;;;;;;10.31;75.00;99073.14;130252;1268;109565;-79
2022/01/03 00:28:32;;;;;;;7.10;3.80;;;;;;;10.32;74.65;99073.73;130166;1269;108735;-80
2022/01/03 00:31:41;;;;;;;6.20;3.60;;;;;;;10.33;74.27;99070.06;130246;1268;107236;-77
2022/01/03 00:34:51;;;;;;;5.30;3.60;;;;;;;10.33;74.68;99069.89;130211;1268;108631;-78
2022/01/03 00:38:00;;;;;;;6.20;3.90;;;;;;;10.31;74.27;99061.02;130191;1270;108793;-78
2022/01/03 00:41:06;;;;;;;4.30;3.20;;;;;;;10.29;74.17;99068.61;130302;1268;108129;-78
2022/01/03 00:44:12;;;;;;;6.70;3.00;;;;;;;10.25;74.40;99067.27;130245;1268;108689;-80
2022/01/03 00:47:18;;;;;;;9.00;4.80;;;;;;;10.21;73.80;99062.84;130252;1268;108711;-74
2022/01/03 00:50:24;;;;;;;9.80;5.90;;;;;;;10.21;74.03;99061.95;130310;1268;108266;-77
2022/01/03 00:53:29;;;;;;;13.20;6.30;;;;;;;10.23;73.92;99060.89;130210;1269;108813;-76
2022/01/03 00:56:38;;;;;;;22.10;14.40;;;;;;;10.25;73.56;99060.10;130222;1268;108654;-78
2022/01/03 00:59:47;;;;;;;26.60;11.40;;;;;;;10.24;73.80;99056.11;130314;1268;108851;-76
2022/01/03 01:03:04;;;;;;;23.10;12.30;;;;;;;10.21;73.39;99062.64;130218;1268;108559;-79
2022/01/03 01:06:11;;;;;;;69.10;37.40;;;;;;;10.17;73.93;99056.54;130263;1268;107705;-77
2022/01/03 01:09:18;;;;;;;23.10;12.40;;;;;;;10.12;73.94;99053.78;130197;1268;108943;-77
2022/01/03 01:12:24;;;;;;;26.20;14.10;;;;;;;10.09;73.88;99058.41;130166;1269;108771;-78
2022/01/03 01:15:30;;;;;;;22.60;11.80;;;;;;;10.09;73.39;99048.77;130238;1268;108932;-80
2022/01/03 01:18:37;;;;;;;21.10;14.40;;;;;;;10.10;73.68;99050.27;130135;1268;108758;-80
2022/01/03 01:21:43;;;;;;;17.70;9.20;;;;;;;10.11;73.43;99044.16;130239;1268;108789;-80
2022/01/03 01:24:49;;;;;;;47.30;24.20;;;;;;;10.08;73.07;99045.79;130259;1268;108825;-79
2022/01/03 01:27:56;;;;;;;35.50;19.20;;;;;;;10.03;73.67;99045.80;130282;1268;108859;-79
2022/01/03 01:31:05;;;;;;;92.60;45.10;;;;;;;9.98;73.16;99048.14;130076;1268;108711;-78
2022/01/03 01:34:19;;;;;;;75.00;37.00;;;;;;;9.93;73.49;99046.77;130213;1269;108844;-79
2022/01/03 01:37:25;;;;;;;24.60;12.90;;;;;;;9.89;73.43;99046.85;130302;1270;108914;-77
2022/01/03 01:40:31;;;;;;;12.20;6.10;;;;;;;9.89;73.11;99044.04;130430;1268;109255;-78
2022/01/03 01:43:40;;;;;;;20.20;8.20;;;;;;;9.87;73.18;99043.92;130263;1268;108800;-77
2022/01/03 01:46:48;;;;;;;9.50;4.50;;;;;;;9.80;72.79;99042.77;130282;1269;108697;-80
2022/01/03 01:49:57;;;;;;;9.80;4.70;;;;;;;9.71;73.01;99041.32;130262;1268;109232;-78
2022/01/03 01:53:08;;;;;;;32.50;12.40;;;;;;;9.62;72.75;99046.20;130111;1269;108909;-78
2022/01/03 01:56:19;;;;;;;32.30;11.30;;;;;;;9.53;73.06;99050.56;130300;1268;109008;-74
2022/01/03 01:59:35;;;;;;;19.60;10.60;;;;;;;9.45;73.23;99051.20;130246;1268;108631;-75
2022/01/03 02:02:51;;;;;;;27.30;13.90;;;;;;;9.41;73.25;99053.05;130265;1268;108909;-75
2022/01/03 02:06:10;;;;;;;48.60;21.20;;;;;;;9.37;73.34;99050.52;130222;1268;108865;-76
2022/01/03 02:09:21;;;;;;;152.40;49.90;;;;;;;9.33;73.45;99046.44;130212;1266;108793;-77
2022/01/03 02:12:31;;;;;;;74.90;28.60;;;;;;;9.27;73.56;99042.41;130249;1268;108838;-77
2022/01/03 02:15:38;;;;;;;46.30;18.00;;;;;;;9.21;73.40;99040.78;130289;1271;108864;-79
2022/01/03 02:18:45;;;;;;;39.10;15.00;;;;;;;9.16;73.82;99044.05;130281;1268;108691;-80
2022/01/03 02:21:52;;;;;;;22.30;10.50;;;;;;;9.13;73.89;99044.91;130342;1271;108750;-80
2022/01/03 02:25:02;;;;;;;11.20;5.60;;;;;;;9.14;73.75;99040.88;130293;1270;108901;-78
2022/01/03 02:28:07;;;;;;;9.60;4.80;;;;;;;9.17;73.45;99044.29;130200;1271;108783;-81
2022/01/03 02:31:17;;;;;;;16.40;11.30;;;;;;;9.17;73.62;99038.27;130386;1268;108887;-80
2022/01/03 02:34:24;;;;;;;48.50;28.80;;;;;;;9.14;73.57;99036.61;130353;1268;108878;-80
2022/01/03 02:37:30;;;;;;;15.20;10.50;;;;;;;9.09;73.58;99036.84;130301;1268;108881;-80
2022/01/03 02:40:36;;;;;;;35.40;24.20;;;;;;;9.02;73.75;99029.05;130239;1270;108956;-75
2022/01/03 02:43:41;;;;;;;25.60;17.30;;;;;;;8.94;73.85;99030.16;130218;1271;108828;-77
2022/01/03 02:46:47;;;;;;;20.90;14.40;;;;;;;8.89;73.98;99024.53;130229;1270;108349;-79
2022/01/03 02:49:53;;;;;;;6.40;4.30;;;;;;;8.87;73.88;99021.48;130216;1268;108938;-80
2022/01/03 02:52:59;;;;;;;5.50;4.00;;;;;;;8.87;74.08;99025.27;130308;1269;108719;-80
2022/01/03 02:56:05;;;;;;;10.10;5.50;;;;;;;8.91;73.97;99023.12;130352;1268;108700;-80
2022/01/03 02:59:16;;;;;;;5.30;3.40;;;;;;;8.89;73.95;99026.33;130332;1268;107680;-80
2022/01/03 03:02:24;;;;;;;6.30;3.30;;;;;;;8.86;74.07;99024.95;130436;1268;108853;-76
2022/01/03 03:05:30;;;;;;;5.80;4.10;;;;;;;8.82;74.17;99029.88;130248;1271;109688;-75
2022/01/03 03:08:36;;;;;;;7.30;4.20;;;;;;;8.79;74.26;99032.60;130182;1268;108837;-77
2022/01/03 03:11:42;;;;;;;6.20;4.40;;;;;;;8.76;74.39;99026.50;130125;1270;108928;-76
2022/01/03 03:14:49;;;;;;;5.60;4.30;;;;;;;8.77;74.53;99029.83;130104;1271;108868;-76
2022/01/03 03:17:54;;;;;;;8.40;5.40;;;;;;;8.81;74.64;99034.66;130257;1269;108693;-76
2022/01/03 03:21:00;;;;;;;25.80;16.80;;;;;;;8.84;74.63;99025.65;130209;1268;108539;-76
2022/01/03 03:24:07;;;;;;;40.80;25.20;;;;;;;8.83;74.82;99017.90;130165;1270;108873;-76
2022/01/03 03:27:13;;;;;;;17.20;11.30;;;;;;;8.79;74.66;99014.49;130204;1269;108620;-77
2022/01/03 03:30:23;;;;;;;6.20;4.50;;;;;;;8.73;74.95;99011.98;130265;1268;108504;-76
2022/01/03 03:33:29;;;;;;;8.50;5.60;;;;;;;8.65;75.20;99009.45;130226;1268;108745;-77
2022/01/03 03:36:37;;;;;;;13.10;9.30;;;;;;;8.64;75.33;99011.91;130224;1268;108701;-76
2022/01/03 03:39:43;;;;;;;9.70;5.70;;;;;;;8.66;75.32;99006.23;130188;1269;108715;-74
2022/01/03 03:42:50;;;;;;;14.80;9.30;;;;;;;8.67;75.36;99002.57;130262;1271;108863;-73
2022/01/03 03:45:56;;;;;;;9.10;6.10;;;;;;;8.65;75.38;99005.93;130327;1268;108674;-76
2022/01/03 03:49:01;;;;;;;6.80;4.50;;;;;;;8.61;75.67;99009.23;130171;1271;108908;-77
2022/01/03 03:52:07;;;;;;;9.40;7.10;;;;;;;8.57;75.60;99010.20;130205;1271;108961;-76
2022/01/03 03:55:13;;;;;;;9.40;6.70;;;;;;;8.54;75.50;99008.29;130171;1270;108653;-76
2022/01/03 03:58:19;;;;;;;9.00;6.00;;;;;;;8.54;75.60;99005.06;130216;1271;108874;-76
2022/01/03 04:01:25;;;;;;;8.60;5.70;;;;;;;8.58;75.72;99002.65;130205;1270;108777;-80
2022/01/03 04:04:33;;;;;;;6.50;4.20;;;;;;;8.61;75.67;98999.95;130330;1268;108483;-77
2022/01/03 04:07:39;;;;;;;6.70;4.50;;;;;;;8.62;75.78;98994.94;130225;1268;108661;-77
2022/01/03 04:10:45;;;;;;;7.30;4.40;;;;;;;8.60;75.67;98994.20;130313;1271;108772;-77
2022/01/03 04:13:51;;;;;;;8.70;4.50;;;;;;;8.56;75.84;98993.87;130223;1268;108838;-77
2022/01/03 04:16:57;;;;;;;9.00;4.40;;;;;;;8.51;76.03;98986.96;130254;1269;108984;-77
2022/01/03 04:20:04;;;;;;;8.60;4.60;;;;;;;8.51;76.01;98975.27;130272;1268;108650;-76
2022/01/03 04:23:09;;;;;;;7.20;5.20;;;;;;;8.53;76.07;98974.30;130290;1269;108894;-76
2022/01/03 04:26:15;;;;;;;7.20;4.40;;;;;;;8.54;76.12;98972.66;130205;1270;108789;-75
2022/01/03 04:29:20;;;;;;;6.60;4.50;;;;;;;8.53;76.04;98974.25;130138;1268;106952;-75
2022/01/03 04:32:26;;;;;;;6.70;4.50;;;;;;;8.52;76.08;98971.64;129961;1270;108915;-76
2022/01/03 04:35:31;;;;;;;25.50;16.40;;;;;;;8.48;76.08;98974.38;130251;1268;108681;-76
2022/01/03 04:38:38;;;;;;;24.70;18.40;;;;;;;8.43;76.29;98969.41;130261;1268;108831;-78
2022/01/03 04:41:44;;;;;;;14.80;8.80;;;;;;;8.43;76.26;98961.58;130214;1269;108757;-76
2022/01/03 04:44:49;;;;;;;38.40;27.40;;;;;;;8.45;76.19;98955.72;130217;1270;108821;-76
2022/01/03 04:47:56;;;;;;;78.30;58.40;;;;;;;8.47;76.08;98968.97;130256;1270;107698;-76
2022/01/03 04:51:02;;;;;;;48.50;31.50;;;;;;;8.48;76.20;98967.27;130226;1268;108952;-77
2022/01/03 04:54:08;;;;;;;37.50;26.00;;;;;;;8.47;76.07;98969.70;130294;1268;108726;-76
2022/01/03 04:57:14;;;;;;;58.30;37.10;;;;;;;8.43;76.20;98970.30;130155;1269;108884;-76
2022/01/03 05:00:20;;;;;;;95.50;55.90;;;;;;;8.41;76.28;98972.98;130163;1270;108696;-75
2022/01/03 05:03:26;;;;;;;29.50;17.00;;;;;;;8.40;76.52;98966.49;130243;1268;108955;-77
2022/01/03 05:06:31;;;;;;;164.70;93.40;;;;;;;8.42;76.48;98962.78;130147;1270;108957;-76
2022/01/03 05:09:37;;;;;;;157.90;90.10;;;;;;;8.45;76.67;98962.20;130172;1270;108725;-76
2022/01/03 05:12:42;;;;;;;92.50;54.40;;;;;;;8.46;76.70;98961.13;130228;1267;108829;-77
2022/01/03 05:15:48;;;;;;;109.20;64.50;;;;;;;8.44;76.69;98965.92;130205;1268;109038;-77
2022/01/03 05:18:53;;;;;;;178.30;94.50;;;;;;;8.43;76.64;98964.14;130186;1268;108898;-77
2022/01/03 05:21:59;;;;;;;174.90;96.60;;;;;;;8.44;76.79;98963.59;130196;1271;108768;-77
2022/01/03 05:25:07;;;;;;;142.40;84.00;;;;;;;8.50;76.73;98964.58;130129;1270;109712;-76
2022/01/03 05:28:13;;;;;;;114.50;68.90;;;;;;;8.58;76.79;98959.88;130265;1268;109180;-77
2022/01/03 05:31:19;;;;;;;212.40;133.20;;;;;;;8.68;76.62;98955.83;130228;1268;108902;-76
2022/01/03 05:34:25;;;;;;;111.90;72.00;;;;;;;8.76;76.73;98947.45;130205;1271;108826;-76
2022/01/03 05:37:31;;;;;;;165.50;99.60;;;;;;;8.81;76.59;98943.70;130235;1268;108952;-75
2022/01/03 05:40:37;;;;;;;16.20;10.80;;;;;;;8.80;76.50;98944.33;130225;1268;108836;-76
2022/01/03 05:43:42;;;;;;;11.50;7.20;;;;;;;8.77;76.58;98940.63;130523;1269;108875;-76
2022/01/03 05:46:49;;;;;;;7.80;5.10;;;;;;;8.78;76.72;98944.02;130132;1270;108780;-75
2022/01/03 05:49:55;;;;;;;15.90;11.20;;;;;;;8.82;76.71;98942.16;130241;1268;108781;-77
2022/01/03 05:53:01;;;;;;;16.10;11.30;;;;;;;8.88;76.66;98939.58;130285;1268;108877;-77
2022/01/03 05:56:07;;;;;;;19.10;13.20;;;;;;;8.91;76.44;98933.48;130283;1268;108739;-76
2022/01/03 05:59:12;;;;;;;16.70;11.80;;;;;;;8.90;76.75;98932.55;130241;1269;107764;-75
2022/01/03 06:02:18;;;;;;;15.70;12.00;;;;;;;8.89;76.57;98932.02;130252;1268;108780;-77
2022/01/03 06:05:52;;;;;;;14.00;8.60;;;;;;;8.85;76.58;98933.27;130175;1271;108779;-76
2022/01/03 06:08:58;;;;;;;20.80;16.30;;;;;;;8.80;76.70;98933.86;130281;1269;108730;-77
2022/01/03 06:12:05;;;;;;;17.60;13.70;;;;;;;8.77;76.71;98929.29;130299;1269;108738;-77
2022/01/03 06:15:15;;;;;;;14.50;10.30;;;;;;;8.78;76.76;98926.37;130267;1271;108901;-76
2022/01/03 06:18:24;;;;;;;15.30;10.80;;;;;;;8.79;76.78;98924.83;130301;1268;108792;-77
2022/01/03 06:21:40;;;;;;;14.10;9.10;;;;;;;8.80;76.75;98920.02;130233;1268;108656;-76
2022/01/03 06:24:47;;;;;;;11.60;8.00;;;;;;;8.81;76.74;98919.55;130139;1268;108818;-75
2022/01/03 06:27:54;;;;;;;65.50;41.70;;;;;;;8.81;76.71;98912.31;130253;1268;108737;-77
2022/01/03 06:31:00;;;;;;;22.00;13.80;;;;;;;8.80;76.75;98909.63;130236;1268;108675;-77
2022/01/03 06:34:06;;;;;;;10.20;5.80;;;;;;;8.78;76.82;98908.03;130245;1268;108813;-76
2022/01/03 06:37:12;;;;;;;11.20;9.50;;;;;;;8.76;76.87;98914.35;130225;1268;108871;-76
2022/01/03 06:40:36;;;;;;;132.00;91.40;;;;;;;8.78;77.01;98914.96;130228;1268;108811;-74
2022/01/03 06:43:42;;;;;;;79.40;59.10;;;;;;;8.83;76.87;98914.73;130250;1268;109142;-76
2022/01/03 06:46:48;;;;;;;28.70;21.10;;;;;;;8.86;76.94;98917.90;130088;1269;205811;-84
2022/01/03 06:49:54;;;;;;;19.50;15.30;;;;;;;8.91;76.79;98914.42;130224;1268;107986;-81
2022/01/03 06:52:59;;;;;;;43.90;37.10;;;;;;;8.94;76.78;98914.86;130187;1271;108844;-76
2022/01/03 06:56:05;;;;;;;28.70;22.30;;;;;;;8.97;76.90;98918.11;130164;1268;108749;-76
2022/01/03 06:59:11;;;;;;;49.80;36.60;;;;;;;8.97;77.02;98920.21;130232;1268;108830;-76
2022/01/03 07:02:17;;;;;;;34.70;24.40;;;;;;;9.01;76.90;98922.57;130340;1268;108881;-80
2022/01/03 07:05:23;;;;;;;18.30;16.20;;;;;;;9.10;76.90;98921.95;130274;1271;108837;-81
2022/01/03 07:08:29;;;;;;;14.30;10.20;;;;;;;9.18;76.86;98915.17;130325;1270;108783;-81
2022/01/03 07:11:35;;;;;;;55.20;42.40;;;;;;;9.24;76.79;98916.06;130252;1270;108564;-81
2022/01/03 07:21:30;;;;;;;443.50;368.40;;;;;;;9.31;76.76;98919.55;130450;1268;108172;-81
2022/01/03 07:24:37;;;;;;;38.00;27.90;;;;;;;9.29;76.77;98921.02;130231;1268;108614;-81
2022/01/03 07:27:43;;;;;;;21.40;17.40;;;;;;;9.28;76.93;98921.90;130375;1268;108696;-81
2022/01/03 07:30:48;;;;;;;33.20;23.00;;;;;;;9.29;76.96;98921.67;130407;1268;107372;-81
2022/01/03 07:33:54;;;;;;;295.20;141.90;;;;;;;9.35;77.11;98924.41;130460;1268;108911;-80
2022/01/03 07:36:59;;;;;;;70.60;39.20;;;;;;;9.40;77.14;98921.46;130442;1268;108246;-81
2022/01/03 07:40:06;;;;;;;50.70;32.10;;;;;;;9.42;77.32;98924.95;130465;1268;108835;-81
2022/01/03 07:43:11;;;;;;;22.30;14.50;;;;;;;9.42;77.53;98926.05;130444;1268;108967;-80
2022/01/03 07:46:17;;;;;;;9.60;6.60;;;;;;;9.36;77.82;98928.85;130325;1268;108770;-81
2022/01/03 07:49:22;;;;;;;12.10;10.20;;;;;;;9.32;78.01;98932.42;130435;1268;108760;-80
2022/01/03 07:52:27;;;;;;;8.30;5.10;;;;;;;9.29;78.21;98936.61;130341;1268;108849;-81
2022/01/03 07:55:33;;;;;;;8.90;7.20;;;;;;;9.30;78.45;98939.89;130442;1268;108511;-81
2022/01/03 07:58:39;;;;;;;59.30;44.10;;;;;;;9.31;78.56;98945.14;130422;1268;108681;-80
2022/01/03 08:01:44;;;;;;;88.20;64.60;;;;;;;9.29;78.46;98950.80;130436;1268;109058;-81
2022/01/03 08:04:49;;;;;;;106.80;72.90;;;;;;;9.24;78.76;98954.60;130382;1268;108896;-79
2022/01/03 08:07:55;;;;;;;18.80;13.40;;;;;;;9.12;78.98;98955.28;130315;1268;107463;-79
2022/01/03 08:11:00;;;;;;;40.90;29.50;;;;;;;8.97;79.53;98960.11;130325;1268;108972;-79
2022/01/03 08:14:06;;;;;;;25.50;14.20;;;;;;;8.91;79.67;98966.56;130356;1268;108754;-81
2022/01/03 08:17:11;;;;;;;5.70;3.80;;;;;;;8.84;79.73;98966.39;130441;1268;108643;-80
2022/01/03 08:20:16;;;;;;;12.80;7.40;;;;;;;8.68;79.58;98965.52;130377;1268;108989;-79
2022/01/03 08:23:22;;;;;;;5.20;2.90;;;;;;;8.51;79.49;98967.11;130348;1268;108829;-80
2022/01/03 08:26:27;;;;;;;4.80;3.00;;;;;;;8.36;79.75;98965.02;130336;1268;108768;-79
2022/01/03 08:29:32;;;;;;;3.10;2.10;;;;;;;8.25;79.74;98960.23;130365;1268;108864;-80
2022/01/03 08:32:38;;;;;;;3.30;2.20;;;;;;;8.18;79.52;98958.45;130320;1268;107872;-80
2022/01/03 08:35:43;;;;;;;3.50;1.60;;;;;;;8.19;79.40;98955.20;130413;1268;108722;-79
2022/01/03 08:38:48;;;;;;;2.20;1.70;;;;;;;8.16;79.17;98954.96;130345;1268;108781;-79
2022/01/03 08:41:54;;;;;;;2.00;1.20;;;;;;;8.14;79.15;98958.39;130307;1268;108703;-80
2022/01/03 08:44:59;;;;;;;2.60;1.70;;;;;;;8.14;79.28;98968.85;130436;1268;109044;-80
2022/01/03 08:48:05;;;;;;;7.00;6.20;;;;;;;8.18;79.42;98964.45;130392;1268;108187;-80
2022/01/03 08:51:10;;;;;;;25.60;20.20;;;;;;;8.18;79.46;98966.74;130382;1268;108876;-80
2022/01/03 08:54:16;;;;;;;28.20;22.90;;;;;;;8.19;79.56;98961.23;130423;1268;108147;-80
2022/01/03 08:57:22;;;;;;;22.90;17.90;;;;;;;8.20;79.52;98958.14;130310;1268;108629;-80
2022/01/03 09:00:27;;;;;;;3.70;2.00;;;;;;;8.20;79.79;98958.85;130334;1268;108728;-80
2022/01/03 09:03:33;;;;;;;27.90;18.90;;;;;;;8.10;79.93;98962.15;130422;1268;107431;-81
2022/01/03 09:06:38;;;;;;;20.00;15.00;;;;;;;8.08;80.05;98959.27;130395;1268;108826;-80
2022/01/03 09:09:43;;;;;;;34.10;24.90;;;;;;;8.12;79.84;98957.20;130317;1268;108824;-78
2022/01/03 09:12:49;;;;;;;18.50;12.70;;;;;;;8.19;79.85;98953.16;130305;1268;106792;-79
2022/01/03 09:15:54;;;;;;;41.80;31.80;;;;;;;8.24;79.76;98952.61;130319;1268;108686;-79
2022/01/03 09:18:59;;;;;;;51.00;36.30;;;;;;;8.26;79.86;98951.59;130273;1268;108694;-79
2022/01/03 09:22:14;;;;;;;43.20;28.70;;;;;;;8.30;80.10;98950.62;130284;1268;108641;-79
2022/01/03 09:28:53;;;;;;;54.80;28.70;;;;;;;8.48;80.10;98946.13;130419;1268;107507;-80
2022/01/03 09:31:58;;;;;;;10.20;6.70;;;;;;;8.56;79.89;98949.45;130339;1268;106948;-80
2022/01/03 09:35:04;;;;;;;7.90;6.20;;;;;;;8.61;80.11;98939.40;130302;1268;108893;-79
2022/01/03 09:38:09;;;;;;;31.30;23.60;;;;;;;8.62;80.25;98935.90;130264;1268;108894;-80
2022/01/03 09:41:18;;;;;;;22.40;17.10;;;;;;;8.58;80.08;98934.75;130267;1268;108984;-81
2022/01/03 09:44:29;;;;;;;25.30;18.40;;;;;;;8.57;80.06;98933.39;130382;1268;108756;-80
2022/01/03 09:47:37;;;;;;;51.90;37.20;;;;;;;8.51;80.44;98929.51;130301;1268;108786;-81
2022/01/03 09:50:45;;;;;;;30.80;21.70;;;;;;;8.48;80.25;98931.27;130435;1268;108696;-80
2022/01/03 09:53:52;;;;;;;131.20;90.70;;;;;;;8.53;80.52;98926.44;130368;1268;106951;-80
2022/01/03 09:57:00;;;;;;;25.00;17.20;;;;;;;8.52;80.23;98920.04;130447;1268;107358;-81
2022/01/03 10:00:08;;;;;;;31.60;20.60;;;;;;;8.51;80.49;98920.17;130450;1268;108811;-80
2022/01/03 10:03:13;;;;;;;37.90;33.90;;;;;;;8.56;80.57;98909.45;130409;1268;108713;-80
2022/01/03 10:06:20;;;;;;;52.50;39.60;;;;;;;8.62;80.60;98910.95;130343;1268;108842;-80
2022/01/03 10:09:26;;;;;;;55.60;44.90;;;;;;;8.68;80.69;98902.90;130367;1267;109011;-80
2022/01/03 10:12:31;;;;;;;104.20;76.10;;;;;;;8.75;80.71;98903.56;130432;1268;108788;-79
2022/01/03 10:15:37;;;;;;;61.40;41.70;;;;;;;8.78;80.59;98893.85;130315;1268;108761;-80
2022/01/03 10:18:42;;;;;;;41.50;33.40;;;;;;;8.80;80.69;98895.92;130340;1268;108680;-80
2022/01/03 10:21:49;;;;;;;50.00;39.40;;;;;;;8.83;80.71;98888.86;130204;1268;109758;-80
2022/01/03 10:24:55;;;;;;;43.90;39.50;;;;;;;8.85;80.72;98889.39;130412;1268;108789;-81
2022/01/03 10:28:01;;;;;;;8.80;6.60;;;;;;;8.88;80.85;98891.49;130417;1268;108635;-81
2022/01/03 10:31:15;;;;;;;48.70;37.50;;;;;;;8.85;80.86;98893.20;130434;1268;108592;-80
2022/01/03 10:34:23;;;;;;;49.10;34.00;;;;;;;8.80;81.01;98889.25;130384;1268;108762;-81
2022/01/03 10:37:38;;;;;;;26.20;20.30;;;;;;;8.78;81.23;98881.15;130316;1268;108771;-80
2022/01/03 10:40:44;;;;;;;5.30;3.90;;;;;;;8.81;81.30;98878.96;130429;1268;108950;-82
2022/01/03 10:43:51;;;;;;;5.60;3.30;;;;;;;8.88;81.36;98878.06;130408;1268;108963;-81
2022/01/03 10:46:56;;;;;;;4.70;3.20;;;;;;;8.90;81.18;98875.13;130468;1268;108572;-80
2022/01/03 10:50:12;;;;;;;5.10;3.00;;;;;;;8.91;81.20;98874.98;130409;1268;109687;-82
2022/01/03 10:53:31;;;;;;;4.10;2.50;;;;;;;8.87;81.22;98875.64;130356;1268;108773;-82
2022/01/03 10:56:38;;;;;;;2.60;1.90;;;;;;;8.83;81.46;98874.69;130347;1268;108761;-81
2022/01/03 10:59:43;;;;;;;6.10;2.60;;;;;;;8.79;81.32;98868.57;130471;1268;108854;-81
2022/01/03 11:03:19;;;;;;;5.60;4.00;;;;;;;8.77;81.40;98873.90;130436;1268;108843;-80
2022/01/03 11:06:46;;;;;;;18.90;13.70;;;;;;;8.77;81.49;98872.90;130345;1268;107850;-81
2022/01/03 11:13:33;;;;;;;35.70;20.90;;;;;;;8.75;81.58;98869.20;130282;1267;108728;-81
2022/01/03 11:16:40;;;;;;;29.70;21.40;;;;;;;8.73;81.61;98870.35;130441;1268;108683;-81
2022/01/03 11:19:45;;;;;;;17.40;14.10;;;;;;;8.73;81.76;98868.21;130385;1268;108788;-80
2022/01/03 11:22:52;;;;;;;5.20;2.90;;;;;;;8.74;81.94;98868.98;130423;1268;108856;-81
2022/01/03 11:25:58;;;;;;;10.70;7.60;;;;;;;8.71;82.04;98867.70;130419;1268;108680;-80
2022/01/03 11:29:05;;;;;;;24.50;15.10;;;;;;;8.67;82.12;98866.02;130356;1268;108793;-81
2022/01/03 11:32:11;;;;;;;16.40;11.10;;;;;;;8.63;82.01;98866.46;130335;1268;108575;-81
2022/01/03 11:35:17;;;;;;;10.80;7.70;;;;;;;8.57;82.21;98866.27;130423;1268;108901;-80
2022/01/03 11:38:26;;;;;;;10.70;9.20;;;;;;;8.55;82.18;98867.23;130385;1268;108763;-80
2022/01/03 11:41:32;;;;;;;22.10;19.70;;;;;;;8.59;82.26;98868.13;130396;1268;108768;-81
2022/01/03 11:44:40;;;;;;;35.30;27.50;;;;;;;8.64;82.10;98869.33;130445;1267;108770;-81
2022/01/03 11:47:46;;;;;;;23.60;15.80;;;;;;;8.64;82.18;98866.30;130317;1268;106838;-81
2022/01/03 11:50:54;;;;;;;34.40;23.20;;;;;;;8.62;82.06;98865.65;130432;1268;108675;-80
2022/01/03 11:54:03;;;;;;;18.00;12.30;;;;;;;8.61;82.17;98867.45;130417;1268;109158;-81
2022/01/03 11:57:13;;;;;;;45.40;31.70;;;;;;;8.59;82.09;98867.50;130446;1268;108780;-81
2022/01/03 12:03:44;;;;;;;61.30;42.90;;;;;;;8.58;82.10;98870.36;130373;1268;108845;-78
2022/01/03 12:06:49;;;;;;;15.00;11.20;;;;;;;8.53;82.17;98874.70;130356;1268;108701;-80
2022/01/03 12:10:09;;;;;;;15.20;11.00;;;;;;;8.45;82.26;98875.60;130375;1268;108654;-80
2022/01/03 12:13:15;;;;;;;6.00;3.70;;;;;;;8.43;82.43;98883.75;130466;1267;108933;-81
2022/01/03 12:16:36;;;;;;;11.50;8.70;;;;;;;8.41;82.51;98887.55;130457;1268;108860;-80
2022/01/03 12:19:43;;;;;;;9.50;7.10;;;;;;;8.32;82.95;98900.04;130327;1268;108729;-81
2022/01/03 12:22:52;;;;;;;7.10;4.90;;;;;;;8.15;83.31;98913.62;130299;1268;108713;-79
2022/01/03 12:26:16;;;;;;;3.70;2.70;;;;;;;7.98;84.20;98919.80;130384;1268;108804;-80
2022/01/03 12:29:21;;;;;;;8.80;6.80;;;;;;;7.85;84.81;98925.63;130409;1268;108991;-81
2022/01/03 12:32:28;;;;;;;6.20;4.30;;;;;;;7.81;85.11;98931.22;130396;1268;108870;-80
2022/01/03 12:35:35;;;;;;;3.70;2.50;;;;;;;7.76;85.15;98940.42;130410;1268;107648;-81
2022/01/03 12:39:00;;;;;;;4.60;2.60;;;;;;;7.71;85.42;98952.46;130373;1268;108948;-80
2022/01/03 12:42:06;;;;;;;6.70;3.90;;;;;;;7.66;86.50;98962.42;130392;1268;109145;-81
2022/01/03 12:45:11;;;;;;;7.00;4.30;;;;;;;7.62;86.80;98968.83;130393;1268;108676;-79
2022/01/03 12:48:34;;;;;;;6.20;4.40;;;;;;;7.55;88.05;98980.21;130280;1268;108645;-79
2022/01/03 12:51:40;;;;;;;5.40;3.40;;;;;;;7.44;87.97;98985.58;130272;1268;108714;-77
2022/01/03 12:54:45;;;;;;;11.20;7.30;;;;;;;7.37;87.99;98996.84;130262;1268;108674;-79
2022/01/03 12:57:51;;;;;;;11.10;7.90;;;;;;;7.33;88.76;99000.78;130263;1268;108807;-79
2022/01/03 13:00:58;;;;;;;6.60;4.50;;;;;;;7.31;88.00;99006.48;130296;1268;108930;-79
2022/01/03 13:04:18;;;;;;;6.30;4.30;;;;;;;7.29;88.27;99010.89;130309;1268;108697;-80
2022/01/03 13:07:25;;;;;;;19.80;15.50;;;;;;;7.29;88.27;99015.34;130293;1267;108797;-81
2022/01/03 13:10:30;;;;;;;8.70;6.50;;;;;;;7.31;88.49;99017.29;130404;1268;108743;-81
2022/01/03 13:13:36;;;;;;;11.10;8.50;;;;;;;7.30;87.75;99026.55;130419;1268;107678;-79
2022/01/03 13:16:44;;;;;;;8.30;5.90;;;;;;;7.33;87.60;99035.10;130328;1267;108343;-79
2022/01/03 13:20:01;;;;;;;6.00;5.00;;;;;;;7.33;87.87;99047.28;130127;1267;108789;-81
2022/01/03 13:23:07;;;;;;;7.00;5.10;;;;;;;7.36;87.61;99050.59;130404;1267;108682;-79
2022/01/03 13:26:12;;;;;;;7.30;5.60;;;;;;;7.38;87.60;99055.23;130287;1268;108700;-80
2022/01/03 13:29:17;;;;;;;15.40;10.90;;;;;;;7.40;87.47;99057.32;130330;1268;108499;-80
2022/01/03 13:32:25;;;;;;;9.60;6.40;;;;;;;7.45;86.99;99068.45;130277;1268;108739;-79
2022/01/03 13:35:30;;;;;;;9.80;6.50;;;;;;;7.47;87.45;99069.88;130202;1268;108841;-80
2022/01/03 13:38:36;;;;;;;7.60;4.50;;;;;;;7.45;87.45;99073.98;130297;1268;108863;-78
2022/01/03 13:41:44;;;;;;;7.20;4.90;;;;;;;7.42;87.15;99082.20;130259;1268;107819;-80
2022/01/03 13:51:38;;;;;;;9.40;5.90;;;;;;;7.33;87.10;99089.91;130377;1268;108719;-79
2022/01/03 13:54:43;;;;;;;6.80;5.00;;;;;;;7.37;86.89;99095.19;130300;1268;109140;-80
2022/01/03 13:57:51;;;;;;;21.30;16.10;;;;;;;7.39;87.21;99096.92;130396;1267;108842;-80
2022/01/03 14:00:59;;;;;;;47.60;32.70;;;;;;;7.35;86.95;99100.36;130371;1268;108652;-80
2022/01/03 14:04:05;;;;;;;7.20;4.80;;;;;;;7.32;87.01;99102.77;130357;1268;108749;-80
2022/01/03 14:07:12;;;;;;;5.00;3.80;;;;;;;7.25;87.05;99108.41;130299;1267;108689;-81
2022/01/03 14:10:17;;;;;;;11.80;9.70;;;;;;;7.26;86.94;99108.19;130428;1268;108598;-80
2022/01/03 14:13:24;;;;;;;7.40;3.80;;;;;;;7.28;87.06;99108.66;130439;1267;108652;-80
2022/01/03 14:16:29;;;;;;;5.20;3.60;;;;;;;7.27;86.70;99117.95;130396;1268;108842;-81
2022/01/03 14:19:36;;;;;;;8.10;6.40;;;;;;;7.26;86.82;99118.04;130385;1268;108830;-80
2022/01/03 14:22:42;;;;;;;4.70;3.10;;;;;;;7.24;86.74;99117.44;130417;1267;107758;-80
2022/01/03 14:25:47;;;;;;;8.80;6.00;;;;;;;7.25;86.53;99119.95;130393;1267;108702;-80
2022/01/03 14:28:59;;;;;;;8.10;4.90;;;;;;;7.29;86.75;99119.73;130394;1268;108818;-81
2022/01/03 14:32:15;;;;;;;6.50;4.40;;;;;;;7.31;86.59;99124.98;130390;1268;108797;-78
2022/01/03 14:35:33;;;;;;;9.60;6.60;;;;;;;7.25;86.48;99128.95;130309;1267;107963;-80
2022/01/03 14:38:40;;;;;;;14.50;10.60;;;;;;;7.21;86.79;99132.55;130368;1268;107579;-80
2022/01/03 14:41:57;;;;;;;66.50;30.30;;;;;;;7.23;87.04;99135.02;130313;1267;109054;-79